createdAt,value
2023-02-21T00:01:44.309Z,100198.31
2023-02-21T00:05:24.996Z,100187.84
2023-02-21T00:09:06.296Z,100184.22
2023-02-21T00:12:46.596Z,100184.72
2023-02-21T00:16:26.197Z,100182.91
2023-02-21T00:20:05.981Z,100164.59
2023-02-21T00:23:45.771Z,100175.84
2023-02-21T00:27:27.263Z,100185.91
2023-02-21T00:31:07.321Z,100179.28
2023-02-21T00:34:47.441Z,100175.03
2023-02-21T00:38:27.222Z,100174.59
2023-02-21T00:42:07.260Z,100171.22
2023-02-21T00:45:48.456Z,100165.78
2023-02-21T00:49:29.039Z,100164.81
2023-02-21T00:53:08.604Z,100167.66
2023-02-21T00:56:48.157Z,100168.19
2023-02-21T01:00:33.104Z,100172.63
2023-02-21T01:04:16.435Z,100168.31
2023-02-21T01:07:56.686Z,100158.53
2023-02-21T01:11:38.402Z,100154.44
2023-02-21T01:15:18.332Z,100155.84
2023-02-21T01:18:58.093Z,100158.44
2023-02-21T01:22:39.478Z,100154.31
2023-02-21T01:26:19.547Z,100155.94
2023-02-21T01:29:59.603Z,100147.03
2023-02-21T01:33:39.361Z,100152.03
2023-02-21T01:37:20.306Z,100147.50
2023-02-21T01:41:03.603Z,100148.94
2023-02-21T01:44:52.082Z,100151.19
2023-02-21T01:48:33.664Z,100155.16
2023-02-21T01:52:13.204Z,100149.88
2023-02-21T01:55:54.394Z,100136.56
2023-02-21T01:59:35.686Z,100129.44
2023-02-21T02:03:19.876Z,100119.75
2023-02-21T02:06:59.586Z,100125.09
2023-02-21T02:10:39.473Z,100108.44
2023-02-21T02:14:11.056Z,100108.31
2023-02-21T02:17:41.814Z,100108.78
2023-02-21T02:21:50.294Z,100105.03
2023-02-21T02:25:25.011Z,100116.31
2023-02-21T02:29:01.003Z,100122.56
2023-02-21T02:32:40.798Z,100116.31
2023-02-21T02:36:06.125Z,100120.25
2023-02-21T02:39:30.903Z,100111.84
2023-02-21T02:42:59.880Z,100098.75
2023-02-21T02:46:24.732Z,100102.03
2023-02-21T02:49:48.029Z,100096.69
2023-02-21T02:53:12.409Z,100096.78
2023-02-21T02:56:37.101Z,100096.28
2023-02-21T03:00:00.284Z,100105.53
2023-02-21T03:03:35.981Z,100105.34
2023-02-21T03:07:02.356Z,100104.13
2023-02-21T03:10:29.731Z,100107.75
2023-02-21T03:13:54.764Z,100101.63
2023-02-21T03:17:18.824Z,100101.03
2023-02-21T03:20:42.819Z,100107.16
2023-02-21T03:24:05.916Z,100104.31
2023-02-21T03:27:30.400Z,100097.72
2023-02-21T03:30:54.504Z,100110.88
2023-02-21T03:34:20.787Z,100095.66
2023-02-21T03:37:44.737Z,100097.31
2023-02-21T03:41:08.167Z,100096.16
2023-02-21T03:44:33.231Z,100095.03
2023-02-21T03:47:56.267Z,100098.88
2023-02-21T03:51:19.554Z,100097.87
2023-02-21T03:54:43.319Z,100106.81
2023-02-21T03:58:06.398Z,100100.28
2023-02-21T04:01:30.620Z,100107.28
2023-02-21T04:04:53.735Z,100101.63
2023-02-21T04:08:17.872Z,100102.69
2023-02-21T04:11:43.928Z,100102.06
2023-02-21T04:15:06.771Z,100095.47
2023-02-21T04:18:31.332Z,100096.16
2023-02-21T04:21:54.741Z,100096.16
2023-02-21T04:25:17.758Z,100095.13
2023-02-21T04:28:40.998Z,100095.22
2023-02-21T04:32:07.067Z,100103.66
2023-02-21T04:35:31.369Z,100093.31
2023-02-21T04:38:54.573Z,100097.41
2023-02-21T04:42:17.009Z,100092.63
2023-02-21T04:45:40.267Z,100083.16
2023-02-21T04:49:02.716Z,100075.44
2023-02-21T04:52:26.721Z,100085.03
2023-02-21T04:55:51.961Z,100082.50
2023-02-21T04:59:14.807Z,100086.81
2023-02-21T05:02:37.391Z,100093.34
2023-02-21T05:06:02.371Z,100088.63
2023-02-21T05:09:25.996Z,100092.38
2023-02-21T05:12:48.641Z,100089.41
2023-02-21T05:16:11.257Z,100096.59
2023-02-21T05:19:34.170Z,100093.72
2023-02-21T05:23:02.076Z,100090.25
2023-02-21T05:26:31.519Z,100095.53
2023-02-21T05:29:54.576Z,100094.37
2023-02-21T05:33:17.574Z,100090.81
2023-02-21T05:36:41.104Z,100090.59
2023-02-21T05:40:05.226Z,100072.94
2023-02-21T05:43:33.792Z,100079.12
2023-02-21T05:46:56.841Z,100077.91
2023-02-21T05:50:19.474Z,100082.91
2023-02-21T05:53:42.242Z,100083.50
2023-02-21T05:57:05.048Z,100087.56
2023-02-21T06:00:30.589Z,100074.50
2023-02-21T06:03:53.185Z,100082.25
2023-02-21T06:07:15.499Z,100079.88
2023-02-21T06:10:38.127Z,100086.00
2023-02-21T06:14:01.320Z,100090.81
2023-02-21T06:17:25.756Z,100095.22
2023-02-21T06:20:48.144Z,100100.59
2023-02-21T06:24:10.938Z,100112.84
2023-02-21T06:27:33.153Z,100105.59
2023-02-21T06:30:59.321Z,100099.22
2023-02-21T06:34:23.266Z,100107.69
2023-02-21T06:37:45.819Z,100109.97
2023-02-21T06:41:08.657Z,100116.66
2023-02-21T06:44:31.497Z,100112.25
2023-02-21T06:47:54.084Z,100124.87
2023-02-21T06:51:17.943Z,100115.66
2023-02-21T06:54:40.414Z,100112.50
2023-02-21T06:58:02.837Z,100121.47
2023-02-21T07:01:26.682Z,100122.59
2023-02-21T07:04:51.850Z,100123.38
2023-02-21T07:08:15.728Z,100118.75
2023-02-21T07:11:38.051Z,100115.06
2023-02-21T07:15:00.703Z,100117.19
2023-02-21T07:18:23.774Z,100122.81
2023-02-21T07:21:46.323Z,100115.34
2023-02-21T07:25:14.501Z,100120.16
2023-02-21T07:28:36.812Z,100135.09
2023-02-21T07:31:59.459Z,100148.59
2023-02-21T07:35:21.757Z,100151.69
2023-02-21T07:38:44.768Z,100150.66
2023-02-21T07:42:09.090Z,100141.44
2023-02-21T07:45:31.866Z,100133.13
2023-02-21T07:48:54.315Z,100155.56
2023-02-21T07:52:17.503Z,100153.47
2023-02-21T07:55:39.831Z,100131.00
2023-02-21T07:59:03.842Z,100146.25
2023-02-21T08:02:26.081Z,100127.56
2023-02-21T08:05:48.703Z,100133.47
2023-02-21T08:09:10.812Z,100136.56
2023-02-21T08:12:33.868Z,100137.16
2023-02-21T08:15:57.548Z,100144.75
2023-02-21T08:19:20.750Z,100145.09
2023-02-21T08:22:43.311Z,100137.97
2023-02-21T08:26:06.843Z,100136.34
2023-02-21T08:29:29.493Z,100129.00
2023-02-21T08:32:53.470Z,100118.41
2023-02-21T08:36:16.230Z,100114.91
2023-02-21T08:39:38.621Z,100125.66
2023-02-21T08:43:01.547Z,100130.00
2023-02-21T08:46:24.624Z,100128.19
2023-02-21T08:49:48.900Z,100135.06
2023-02-21T08:53:14.972Z,100120.03
2023-02-21T08:56:37.769Z,100135.75
2023-02-21T09:00:00.705Z,100129.03
2023-02-21T09:03:23.097Z,100132.19
2023-02-21T09:06:47.045Z,100125.75
2023-02-21T09:10:12.730Z,100134.47
2023-02-21T09:13:35.140Z,100120.59
2023-02-21T09:17:00.750Z,100111.87
2023-02-21T09:20:24.318Z,100123.59
2023-02-21T09:23:48.214Z,100126.31
2023-02-21T09:27:12.484Z,100133.34
2023-02-21T09:30:35.048Z,100114.97
2023-02-21T09:33:58.031Z,100132.34
2023-02-21T09:37:20.578Z,100122.41
2023-02-21T09:40:46.683Z,100114.53
2023-02-21T09:44:09.792Z,100111.66
2023-02-21T09:47:33.449Z,100127.59
2023-02-21T09:50:56.220Z,100124.31
2023-02-21T09:54:21.803Z,100121.31
2023-02-21T09:57:45.442Z,100126.88
2023-02-21T10:01:12.525Z,100129.16
2023-02-21T10:04:42.293Z,100135.03
2023-02-21T10:08:07.500Z,100146.19
2023-02-21T10:11:39.105Z,100146.75
2023-02-21T10:15:21.475Z,100138.75
2023-02-21T10:18:48.477Z,100129.34
2023-02-21T10:22:14.611Z,100138.53
2023-02-21T10:25:37.537Z,100124.19
2023-02-21T10:29:00.028Z,100137.53
2023-02-21T10:32:24.894Z,100124.50
2023-02-21T10:35:47.156Z,100132.41
2023-02-21T10:39:12.346Z,100124.44
2023-02-21T10:42:39.953Z,100122.78
2023-02-21T10:46:05.191Z,100115.59
2023-02-21T10:49:30.646Z,100129.44
2023-02-21T10:52:53.686Z,100120.78
2023-02-21T10:56:27.137Z,100121.91
2023-02-21T10:59:50.804Z,100111.34
2023-02-21T11:03:17.227Z,100111.97
2023-02-21T11:06:41.922Z,100104.84
2023-02-21T11:10:04.742Z,100113.38
2023-02-21T11:13:27.637Z,100120.94
2023-02-21T11:17:14.388Z,100115.22
2023-02-21T11:20:37.441Z,100111.97
2023-02-21T11:24:02.980Z,100112.97
2023-02-21T11:27:25.733Z,100117.09
2023-02-21T11:30:50.904Z,100109.75
2023-02-21T11:34:14.835Z,100112.97
2023-02-21T11:37:48.645Z,100108.59
2023-02-21T11:41:19.607Z,100123.19
2023-02-21T11:44:43.680Z,100117.09
2023-02-21T11:48:07.045Z,100108.91
2023-02-21T11:51:36.094Z,100108.16
2023-02-21T11:54:58.807Z,100107.06
2023-02-21T11:58:24.924Z,100112.09
2023-02-21T12:01:54.926Z,100103.59
2023-02-21T12:05:31.855Z,100107.12
2023-02-21T12:08:57.024Z,100121.47
2023-02-21T12:12:27.611Z,100116.28
2023-02-21T12:15:55.843Z,100098.69
2023-02-21T12:19:28.502Z,100106.25
2023-02-21T12:23:06.152Z,100098.31
2023-02-21T12:26:36.395Z,100092.66
2023-02-21T12:30:11.360Z,100086.16
2023-02-21T12:33:43.232Z,100090.97
2023-02-21T12:37:17.907Z,100079.59
2023-02-21T12:40:44.044Z,100078.25
2023-02-21T12:44:10.124Z,100074.50
2023-02-21T12:47:35.565Z,100080.72
2023-02-21T12:51:03.563Z,100074.06
2023-02-21T12:54:31.678Z,100082.00
2023-02-21T12:57:55.797Z,100074.37
2023-02-21T13:01:21.971Z,100063.63
2023-02-21T13:04:47.714Z,100070.16
2023-02-21T13:08:16.572Z,100063.97
2023-02-21T13:11:43.116Z,100071.47
2023-02-21T13:15:16.046Z,100072.69
2023-02-21T13:18:41.943Z,100063.69
2023-02-21T13:22:40.144Z,100050.72
2023-02-21T13:26:16.947Z,100059.38
2023-02-21T13:29:39.906Z,100064.75
2023-02-21T13:33:02.535Z,100051.50
2023-02-21T13:36:27.597Z,100057.22
2023-02-21T13:39:54.295Z,100055.03
2023-02-21T13:43:22.504Z,100060.31
2023-02-21T13:47:14.001Z,100064.75
2023-02-21T13:50:45.654Z,100053.69
2023-02-21T13:54:11.028Z,100058.91
2023-02-21T13:57:33.542Z,100062.31
2023-02-21T14:00:58.171Z,100046.91
2023-02-21T14:05:03.118Z,100051.81
2023-02-21T14:08:25.630Z,100066.12
2023-02-21T14:11:50.200Z,100058.19
2023-02-21T14:15:12.745Z,100053.38
2023-02-21T14:18:41.285Z,100056.88
2023-02-21T14:22:05.867Z,100059.12
2023-02-21T14:25:28.795Z,100059.06
2023-02-21T14:29:01.998Z,100069.53
2023-02-21T14:32:28.166Z,100066.25
2023-02-21T14:36:01.460Z,100080.19
2023-02-21T14:39:24.431Z,100069.97
2023-02-21T14:42:52.529Z,100078.63
2023-02-21T14:46:30.481Z,100068.91
2023-02-21T14:49:58.947Z,100077.78
2023-02-21T14:53:38.486Z,100075.00
2023-02-21T14:57:21.167Z,100081.37
2023-02-21T15:00:49.412Z,100084.53
2023-02-21T15:04:16.979Z,100084.22
2023-02-21T15:07:44.177Z,100079.66
2023-02-21T15:11:17.258Z,100072.47
2023-02-21T15:14:41.848Z,100069.47
2023-02-21T15:18:06.620Z,100066.72
2023-02-21T15:21:29.695Z,100069.16
2023-02-21T15:25:12.122Z,100081.25
2023-02-21T15:28:36.372Z,100074.97
2023-02-21T15:32:00.332Z,100073.31
2023-02-21T15:35:24.766Z,100075.31
2023-02-21T15:38:49.028Z,100080.75
2023-02-21T15:42:13.554Z,100069.34
2023-02-21T15:45:44.176Z,100083.94
2023-02-21T15:49:07.220Z,100075.97
2023-02-21T15:52:32.390Z,100077.75
2023-02-21T15:55:55.033Z,100078.38
2023-02-21T15:59:20.201Z,100082.31
2023-02-21T16:02:44.580Z,100097.22
2023-02-21T16:06:17.791Z,100101.00
2023-02-21T16:09:47.378Z,100106.03
2023-02-21T16:13:10.313Z,100105.53
2023-02-21T16:16:34.555Z,100107.63
2023-02-21T16:20:00.308Z,100109.56
2023-02-21T16:23:25.706Z,100116.03
2023-02-21T16:27:05.651Z,100117.84
2023-02-21T16:30:28.995Z,100124.09
2023-02-21T16:33:52.598Z,100129.69
2023-02-21T16:37:17.272Z,100132.37
2023-02-21T16:40:42.544Z,100141.13
2023-02-21T16:44:05.126Z,100148.75
2023-02-21T16:47:28.614Z,100146.88
2023-02-21T16:50:52.501Z,100151.09
2023-02-21T16:54:17.569Z,100143.72
2023-02-21T16:57:40.562Z,100145.13
2023-02-21T17:01:05.846Z,100150.13
2023-02-21T17:04:29.991Z,100150.22
2023-02-21T17:07:53.136Z,100150.28
2023-02-21T17:11:19.186Z,100162.75
2023-02-21T17:14:44.645Z,100161.09
2023-02-21T17:18:08.052Z,100161.22
2023-02-21T17:21:32.307Z,100160.50
2023-02-21T17:24:56.360Z,100165.50
2023-02-21T17:28:21.148Z,100167.59
2023-02-21T17:31:44.273Z,100157.16
2023-02-21T17:35:07.850Z,100167.47
2023-02-21T17:38:32.192Z,100163.72
2023-02-21T17:41:56.790Z,100162.78
2023-02-21T17:45:27.375Z,100169.34
2023-02-21T17:48:51.820Z,100162.63
2023-02-21T17:52:15.505Z,100166.50
2023-02-21T17:55:42.851Z,100177.22
2023-02-21T17:59:08.312Z,100170.19
2023-02-21T18:02:34.581Z,100173.44
2023-02-21T18:05:57.981Z,100174.31
2023-02-21T18:09:21.878Z,100170.56
2023-02-21T18:12:46.018Z,100179.25
2023-02-21T18:16:10.041Z,100172.50
2023-02-21T18:19:35.567Z,100171.31
2023-02-21T18:22:59.520Z,100169.69
2023-02-21T18:26:24.658Z,100160.25
2023-02-21T18:29:48.737Z,100148.97
2023-02-21T18:33:16.282Z,100157.62
2023-02-21T18:36:47.417Z,100160.06
2023-02-21T18:40:13.067Z,100150.84
2023-02-21T18:43:37.449Z,100146.16
2023-02-21T18:47:02.726Z,100157.34
2023-02-21T18:50:27.060Z,100156.50
2023-02-21T18:53:53.878Z,100160.66
2023-02-21T18:57:19.178Z,100150.31
2023-02-21T19:00:43.638Z,100152.31
2023-02-21T19:04:07.064Z,100149.63
2023-02-21T19:07:36.990Z,100153.88
2023-02-21T19:11:02.652Z,100161.53
2023-02-21T19:14:28.493Z,100157.06
2023-02-21T19:17:54.778Z,100163.03
2023-02-21T19:21:18.663Z,100160.03
2023-02-21T19:24:43.315Z,100158.28
2023-02-21T19:28:17.494Z,100171.88
2023-02-21T19:31:42.199Z,100174.69
2023-02-21T19:35:08.188Z,100178.75
2023-02-21T19:38:33.387Z,100179.72
2023-02-21T19:42:05.137Z,100179.63
2023-02-21T19:45:29.502Z,100181.88
2023-02-21T19:48:56.763Z,100184.16
2023-02-21T19:52:24.387Z,100188.81
2023-02-21T19:55:50.878Z,100188.78
2023-02-21T19:59:16.632Z,100187.91
2023-02-21T20:02:45.012Z,100190.03
2023-02-21T20:06:11.301Z,100191.72
2023-02-21T20:09:36.315Z,100191.88
2023-02-21T20:13:02.930Z,100192.44
2023-02-21T20:16:29.088Z,100195.63
2023-02-21T20:19:56.689Z,100195.06
2023-02-21T20:23:21.464Z,100194.47
2023-02-21T20:26:52.266Z,100193.69
2023-02-21T20:30:18.163Z,100198.50
2023-02-21T20:33:50.121Z,100202.44
2023-02-21T20:37:19.890Z,100203.88
2023-02-21T20:40:47.774Z,100207.34
2023-02-21T20:44:12.045Z,100208.00
2023-02-21T20:47:36.813Z,100204.38
2023-02-21T20:51:02.658Z,100208.66
2023-02-21T20:54:29.783Z,100203.91
2023-02-21T20:57:54.999Z,100199.69
2023-02-21T21:01:21.255Z,100200.31
2023-02-21T21:04:48.337Z,100202.72
2023-02-21T21:08:13.308Z,100194.34
2023-02-21T21:11:40.016Z,100195.47
2023-02-21T21:15:04.456Z,100198.09
2023-02-21T21:18:29.464Z,100205.56
2023-02-21T21:21:55.150Z,100207.31
2023-02-21T21:25:19.622Z,100205.19
2023-02-21T21:28:50.084Z,100206.56
2023-02-21T21:32:15.688Z,100201.84
2023-02-21T21:35:40.126Z,100212.12
2023-02-21T21:39:04.380Z,100207.06
2023-02-21T21:42:30.121Z,100197.66
2023-02-21T21:45:55.826Z,100198.22
2023-02-21T21:49:23.547Z,100200.22
2023-02-21T21:52:51.809Z,100197.03
2023-02-21T21:56:17.450Z,100190.22
2023-02-21T21:59:41.568Z,100184.03
2023-02-21T22:03:09.673Z,100198.38
2023-02-21T22:06:33.770Z,100201.72
2023-02-21T22:09:56.859Z,100200.38
2023-02-21T22:13:23.053Z,100212.69
2023-02-21T22:16:47.571Z,100219.41
2023-02-21T22:20:17.936Z,100228.53
2023-02-21T22:23:41.640Z,100222.22
2023-02-21T22:27:04.125Z,100227.94
2023-02-21T22:30:26.802Z,100233.03
2023-02-21T22:33:49.809Z,100233.41
2023-02-21T22:37:14.880Z,100224.28
2023-02-21T22:40:37.918Z,100227.19
2023-02-21T22:44:00.554Z,100218.31
2023-02-21T22:47:23.767Z,100231.72
2023-02-21T22:50:47.561Z,100220.94
2023-02-21T22:54:14.542Z,100216.78
2023-02-21T22:57:37.081Z,100227.88
2023-02-21T23:01:00.340Z,100225.66
2023-02-21T23:04:26.660Z,100232.97
2023-02-21T23:07:50.117Z,100228.06
2023-02-21T23:11:19.089Z,100233.78
2023-02-21T23:14:42.700Z,100228.19
2023-02-21T23:18:05.685Z,100225.16
2023-02-21T23:21:30.563Z,100224.94
2023-02-21T23:24:54.862Z,100239.56
2023-02-21T23:28:19.275Z,100238.50
2023-02-21T23:31:42.074Z,100229.31
2023-02-21T23:35:08.059Z,100232.47
2023-02-21T23:38:30.508Z,100229.63
2023-02-21T23:41:53.716Z,100234.31
2023-02-21T23:45:20.692Z,100233.53
2023-02-21T23:48:45.180Z,100223.00
2023-02-21T23:52:07.725Z,100226.31
2023-02-21T23:55:31.073Z,100230.22
2023-02-21T23:58:53.611Z,100221.66
